Winooski, Vermont
Current Conditions -  °F | °C
As of 3:54 PM on Thursday 23 Oct 2014 (Local Time) from KBTV Reporting Station
Light Rain Light Rain  
Wind Chill: 38°   Ceiling: 600
Heat Index: 45°   Visibility: 5mi
Dew Point: 42°   Wind: 16mph
Humidity: 90%   Direction: 350°N
Pressure: 29.92"   Gusts: NA
Location:  44.49°N, 73.19°W
Report Text: KBTV 231954Z 35014KT 5SM -RA BR OVC006 07/06 A2992 RMK AO2 CIG 005V010 SLP133 P0003 T00720056
Loading
Personal Weather Stations






























Interactive Weather Map
Tropical Storm Tracking
New forecast layout! Learn more

10-Day Weather Forecast

Advertisements
Track Severe Weather on mobile